createdAt,value
2017-10-19T00:00:02.247Z,956.25
2017-10-19T00:01:02.257Z,956.27
2017-10-19T00:02:02.279Z,956.21
2017-10-19T00:03:02.305Z,956.24
2017-10-19T00:04:02.328Z,956.25
2017-10-19T00:05:02.345Z,956.23
2017-10-19T00:06:02.366Z,956.29
2017-10-19T00:07:02.388Z,956.26
2017-10-19T00:08:02.408Z,956.25
2017-10-19T00:09:02.437Z,956.28
2017-10-19T00:10:02.453Z,956.28
2017-10-19T00:11:02.479Z,956.29
2017-10-19T00:12:02.509Z,956.26
2017-10-19T00:13:02.518Z,956.25
2017-10-19T00:14:02.540Z,956.24
2017-10-19T00:15:02.560Z,956.27
2017-10-19T00:16:02.582Z,956.25
2017-10-19T00:17:02.604Z,956.27
2017-10-19T00:18:02.683Z,956.27
2017-10-19T00:19:02.657Z,956.27
2017-10-19T00:20:02.669Z,956.29
2017-10-19T00:21:02.694Z,956.3
2017-10-19T00:22:02.712Z,956.3
2017-10-19T00:23:02.732Z,956.31
2017-10-19T00:24:02.759Z,956.3
2017-10-19T00:25:02.777Z,956.27
2017-10-19T00:26:02.802Z,956.3
2017-10-19T00:27:02.825Z,956.32
2017-10-19T00:28:02.842Z,956.31
2017-10-19T00:29:02.870Z,956.31
2017-10-19T00:30:02.888Z,956.33
2017-10-19T00:31:02.904Z,956.31
2017-10-19T00:32:03.130Z,956.3
2017-10-19T00:33:02.952Z,956.28
2017-10-19T00:34:02.971Z,956.31
2017-10-19T00:35:03.011Z,956.31
2017-10-19T00:36:03.015Z,956.29
2017-10-19T00:37:03.034Z,956.28
2017-10-19T00:38:03.062Z,956.34
2017-10-19T00:39:03.078Z,956.37
2017-10-19T00:40:03.107Z,956.39
2017-10-19T00:41:03.120Z,956.41
2017-10-19T00:42:03.145Z,956.36
2017-10-19T00:43:03.167Z,956.38
2017-10-19T00:44:03.186Z,956.36
2017-10-19T00:45:03.208Z,956.33
2017-10-19T00:46:03.229Z,956.35
2017-10-19T00:47:03.250Z,956.33
2017-10-19T00:48:03.283Z,956.34
2017-10-19T00:49:03.297Z,956.31
2017-10-19T00:50:03.317Z,956.31
2017-10-19T00:51:03.342Z,956.3
2017-10-19T00:52:03.360Z,956.32
2017-10-19T00:53:03.381Z,956.31
2017-10-19T00:54:03.401Z,956.32
2017-10-19T00:55:03.428Z,956.36
2017-10-19T00:56:03.447Z,956.35
2017-10-19T00:57:03.472Z,956.37
2017-10-19T00:58:03.489Z,956.4
2017-10-19T00:59:03.517Z,956.38
2017-10-19T01:00:03.532Z,956.39
2017-10-19T01:01:03.561Z,956.45
2017-10-19T01:02:03.583Z,956.42
2017-10-19T01:03:03.609Z,956.39
2017-10-19T01:04:03.618Z,956.42
2017-10-19T01:05:03.643Z,956.35
2017-10-19T01:06:03.662Z,956.35
2017-10-19T01:07:03.683Z,956.32
2017-10-19T01:08:03.704Z,956.26
2017-10-19T01:09:03.786Z,956.33
2017-10-19T01:10:03.813Z,956.28
2017-10-19T01:11:03.768Z,956.22
2017-10-19T01:12:03.815Z,956.24
2017-10-19T01:13:03.809Z,956.25
2017-10-19T01:14:03.858Z,956.24
2017-10-19T01:15:03.918Z,956.23
2017-10-19T01:16:03.874Z,956.24
2017-10-19T01:17:03.898Z,956.2
2017-10-19T01:18:03.922Z,956.21
2017-10-19T01:19:03.945Z,956.18
2017-10-19T01:20:03.960Z,956.22
2017-10-19T01:21:03.981Z,956.21
2017-10-19T01:22:04.013Z,956.17
2017-10-19T01:23:04.024Z,956.13
2017-10-19T01:24:04.046Z,956.14
2017-10-19T01:25:04.090Z,956.13
2017-10-19T01:26:04.170Z,956.16
2017-10-19T01:27:04.111Z,956.17
2017-10-19T01:28:04.182Z,956.16
2017-10-19T01:29:04.156Z,956.14
2017-10-19T01:30:04.212Z,956.13
2017-10-19T01:31:04.199Z,956.14
2017-10-19T01:32:04.263Z,956.16
2017-10-19T01:33:04.240Z,956.16
2017-10-19T01:34:04.259Z,956.17
2017-10-19T01:35:04.280Z,956.11
2017-10-19T01:36:04.303Z,956.1
2017-10-19T01:37:04.382Z,956.1
2017-10-19T01:38:04.347Z,956.08
2017-10-19T01:39:04.370Z,956.09
2017-10-19T01:40:04.387Z,956.06
2017-10-19T01:41:04.467Z,956.06
2017-10-19T01:42:04.429Z,956.08
2017-10-19T01:43:04.450Z,956.05
2017-10-19T01:44:04.477Z,956.05
2017-10-19T01:45:04.492Z,956.07
2017-10-19T01:46:04.513Z,956.08
2017-10-19T01:47:04.566Z,956.14
2017-10-19T01:48:04.624Z,956.1
2017-10-19T01:49:04.580Z,956.16
2017-10-19T01:50:04.616Z,956.17
2017-10-19T01:51:04.625Z,956.14
2017-10-19T01:52:04.710Z,956.17
2017-10-19T01:53:04.661Z,956.15
2017-10-19T01:54:04.710Z,956.19
2017-10-19T01:55:04.703Z,956.17
2017-10-19T01:56:04.724Z,956.23
2017-10-19T01:57:04.745Z,956.23
2017-10-19T01:58:04.767Z,956.24
2017-10-19T01:59:04.858Z,956.25
2017-10-19T02:00:04.809Z,956.23
2017-10-19T02:01:04.831Z,956.22
2017-10-19T02:02:04.957Z,956.18
2017-10-19T02:03:04.872Z,956.24
2017-10-19T02:04:04.900Z,956.18
2017-10-19T02:05:04.919Z,956.19
2017-10-19T02:06:04.934Z,956.14
2017-10-19T02:07:04.957Z,956.14
2017-10-19T02:08:04.980Z,956.12
2017-10-19T02:09:04.998Z,956.1
2017-10-19T02:10:05.094Z,956.07
2017-10-19T02:11:05.041Z,956.11
2017-10-19T02:12:05.063Z,956.07
2017-10-19T02:13:05.085Z,956.07
2017-10-19T02:14:05.105Z,956.05
2017-10-19T02:15:05.126Z,956.01
2017-10-19T02:16:05.153Z,956.04
2017-10-19T02:17:05.170Z,956.01
2017-10-19T02:18:05.191Z,956.05
2017-10-19T02:19:05.310Z,956.02
2017-10-19T02:20:05.231Z,956.02
2017-10-19T02:21:05.271Z,956.02
2017-10-19T02:22:05.273Z,956.02
2017-10-19T02:23:05.297Z,955.99
2017-10-19T02:24:05.321Z,955.98
2017-10-19T02:25:05.341Z,955.92
2017-10-19T02:26:05.358Z,955.95
2017-10-19T02:27:05.380Z,955.91
2017-10-19T02:28:05.406Z,955.95
2017-10-19T02:29:05.422Z,955.89
2017-10-19T02:30:05.446Z,955.87
2017-10-19T02:31:05.466Z,955.9
2017-10-19T02:32:05.547Z,955.94
2017-10-19T02:33:05.504Z,955.92
2017-10-19T02:34:05.530Z,955.92
2017-10-19T02:35:05.549Z,955.93
2017-10-19T02:36:05.573Z,955.93
2017-10-19T02:37:05.590Z,955.93
2017-10-19T02:38:05.616Z,955.95
2017-10-19T02:39:05.631Z,955.95
2017-10-19T02:40:05.660Z,955.94
2017-10-19T02:41:05.682Z,955.9
2017-10-19T02:42:05.698Z,955.93
2017-10-19T02:43:05.719Z,955.94
2017-10-19T02:44:05.738Z,955.88
2017-10-19T02:45:05.805Z,955.91
2017-10-19T02:46:05.778Z,955.93
2017-10-19T02:47:05.800Z,955.93
2017-10-19T02:48:05.821Z,955.96
2017-10-19T02:49:05.842Z,955.98
2017-10-19T02:50:05.912Z,955.98
2017-10-19T02:51:05.885Z,955.99
2017-10-19T02:52:05.910Z,955.96
2017-10-19T02:53:05.925Z,956
2017-10-19T02:54:05.946Z,955.96
2017-10-19T02:55:06.103Z,955.94
2017-10-19T02:56:05.993Z,955.95
2017-10-19T02:57:06.009Z,955.96
2017-10-19T02:58:06.037Z,955.95
2017-10-19T02:59:06.052Z,955.95
2017-10-19T03:00:06.106Z,955.9
2017-10-19T03:01:06.093Z,955.91
2017-10-19T03:02:06.112Z,955.87
2017-10-19T03:03:06.134Z,955.88
2017-10-19T03:04:06.154Z,955.85
2017-10-19T03:05:06.237Z,955.87
2017-10-19T03:06:06.351Z,955.87
2017-10-19T03:07:06.217Z,955.87
2017-10-19T03:08:06.239Z,955.86
2017-10-19T03:09:06.266Z,955.91
2017-10-19T03:10:06.287Z,955.88
2017-10-19T03:11:06.305Z,955.94
2017-10-19T03:12:06.324Z,955.92
2017-10-19T03:13:06.347Z,955.91
2017-10-19T03:14:06.363Z,955.89
2017-10-19T03:15:06.388Z,955.92
2017-10-19T03:16:06.405Z,955.93
2017-10-19T03:17:06.427Z,955.92
2017-10-19T03:18:06.447Z,955.92
2017-10-19T03:19:06.467Z,955.93
2017-10-19T03:20:06.539Z,955.91
2017-10-19T03:21:06.509Z,955.9
2017-10-19T03:22:06.535Z,955.91
2017-10-19T03:23:06.549Z,955.92
2017-10-19T03:24:06.572Z,955.92
2017-10-19T03:25:06.593Z,955.93
2017-10-19T03:26:06.613Z,955.89
2017-10-19T03:27:06.632Z,955.91
2017-10-19T03:28:06.653Z,955.9
2017-10-19T03:29:06.682Z,955.91
2017-10-19T03:30:06.701Z,955.9
2017-10-19T03:31:06.718Z,955.91
2017-10-19T03:32:06.738Z,955.92
2017-10-19T03:33:06.760Z,955.92
2017-10-19T03:34:06.778Z,955.93
2017-10-19T03:35:06.800Z,955.92
2017-10-19T03:36:06.820Z,955.91
2017-10-19T03:37:06.842Z,955.92
2017-10-19T03:38:06.881Z,955.9
2017-10-19T03:39:06.933Z,955.92
2017-10-19T03:40:06.957Z,955.89
2017-10-19T03:41:06.926Z,955.87
2017-10-19T03:42:06.944Z,955.87
2017-10-19T03:43:06.968Z,955.89
2017-10-19T03:44:06.988Z,955.91
2017-10-19T03:45:07.020Z,955.91
2017-10-19T03:46:07.027Z,955.91
2017-10-19T03:47:07.049Z,955.89
2017-10-19T03:48:07.072Z,955.94
2017-10-19T03:49:07.095Z,955.94
2017-10-19T03:50:07.145Z,955.94
2017-10-19T03:51:07.132Z,955.93
2017-10-19T03:52:07.152Z,955.93
2017-10-19T03:53:07.180Z,955.92
2017-10-19T03:54:07.201Z,955.91
2017-10-19T03:55:07.214Z,955.91
2017-10-19T03:56:07.235Z,955.91
2017-10-19T03:57:07.305Z,955.89
2017-10-19T03:58:07.276Z,955.92
2017-10-19T03:59:07.301Z,955.91
2017-10-19T04:00:07.320Z,955.86
2017-10-19T04:01:07.337Z,955.87
2017-10-19T04:02:07.360Z,955.89
2017-10-19T04:03:07.383Z,955.88
2017-10-19T04:04:07.404Z,955.84
2017-10-19T04:05:07.422Z,955.84
2017-10-19T04:06:07.440Z,955.82
2017-10-19T04:07:07.466Z,955.81
2017-10-19T04:08:07.482Z,955.82
2017-10-19T04:09:07.539Z,955.79
2017-10-19T04:10:07.537Z,955.81
2017-10-19T04:11:07.544Z,955.83
2017-10-19T04:12:07.616Z,955.82
2017-10-19T04:13:07.622Z,955.81
2017-10-19T04:14:07.605Z,955.82
2017-10-19T04:15:07.624Z,955.77
2017-10-19T04:16:07.669Z,955.76
2017-10-19T04:17:07.668Z,955.8
2017-10-19T04:18:07.688Z,955.77
2017-10-19T04:19:07.708Z,955.77
2017-10-19T04:20:07.730Z,955.78
2017-10-19T04:21:07.749Z,955.76
2017-10-19T04:22:07.770Z,955.77
2017-10-19T04:23:07.790Z,955.79
2017-10-19T04:24:07.812Z,955.77
2017-10-19T04:25:07.832Z,955.75
2017-10-19T04:26:07.865Z,955.74
2017-10-19T04:27:07.882Z,955.78
2017-10-19T04:28:07.906Z,955.77
2017-10-19T04:29:07.921Z,955.75
2017-10-19T04:30:07.986Z,955.75
2017-10-19T04:31:07.958Z,955.7
2017-10-19T04:32:07.979Z,955.74
2017-10-19T04:33:07.997Z,955.72
2017-10-19T04:34:08.021Z,955.71
2017-10-19T04:35:08.044Z,955.68
2017-10-19T04:36:08.087Z,955.72
2017-10-19T04:37:08.085Z,955.72
2017-10-19T04:38:08.101Z,955.71
2017-10-19T04:39:08.123Z,955.66
2017-10-19T04:40:08.142Z,955.7
2017-10-19T04:41:08.163Z,955.68
2017-10-19T04:42:08.187Z,955.68
2017-10-19T04:43:08.206Z,955.67
2017-10-19T04:44:08.223Z,955.7
2017-10-19T04:45:08.243Z,955.7
2017-10-19T04:46:08.266Z,955.71
2017-10-19T04:47:08.285Z,955.68
2017-10-19T04:48:08.306Z,955.68
2017-10-19T04:49:08.378Z,955.67
2017-10-19T04:50:08.357Z,955.68
2017-10-19T04:51:08.368Z,955.7
2017-10-19T04:52:08.393Z,955.64
2017-10-19T04:53:08.410Z,955.67
2017-10-19T04:54:08.430Z,955.67
2017-10-19T04:55:08.452Z,955.66
2017-10-19T04:56:08.472Z,955.68
2017-10-19T04:57:08.497Z,955.66
2017-10-19T04:58:08.514Z,955.69
2017-10-19T04:59:08.536Z,955.64
2017-10-19T05:00:08.560Z,955.63
2017-10-19T05:01:08.578Z,955.62
2017-10-19T05:02:08.597Z,955.63
2017-10-19T05:03:08.617Z,955.66
2017-10-19T05:04:08.696Z,955.64
2017-10-19T05:05:08.661Z,955.67
2017-10-19T05:06:08.682Z,955.63
2017-10-19T05:07:08.701Z,955.62
2017-10-19T05:08:08.723Z,955.6
2017-10-19T05:09:08.742Z,955.62
2017-10-19T05:10:08.764Z,955.6
2017-10-19T05:11:08.794Z,955.58
2017-10-19T05:12:08.804Z,955.6
2017-10-19T05:13:08.828Z,955.56
2017-10-19T05:14:08.844Z,955.57
2017-10-19T05:15:08.869Z,955.58
2017-10-19T05:16:08.885Z,955.55
2017-10-19T05:17:08.908Z,955.6
2017-10-19T05:18:08.926Z,955.58
2017-10-19T05:19:08.949Z,955.56
2017-10-19T05:20:08.968Z,955.58
2017-10-19T05:21:09.040Z,955.58
2017-10-19T05:22:09.011Z,955.56
2017-10-19T05:23:09.035Z,955.53
2017-10-19T05:24:09.054Z,955.52
2017-10-19T05:25:09.072Z,955.5
2017-10-19T05:26:09.097Z,955.5
2017-10-19T05:27:09.114Z,955.5
2017-10-19T05:28:09.135Z,955.49
2017-10-19T05:29:09.155Z,955.46
2017-10-19T05:30:09.178Z,955.5
2017-10-19T05:31:09.200Z,955.54
2017-10-19T05:32:09.220Z,955.54
2017-10-19T05:33:09.238Z,955.55
2017-10-19T05:34:09.259Z,955.53
2017-10-19T05:35:09.280Z,955.58
2017-10-19T05:36:09.349Z,955.54
2017-10-19T05:37:09.324Z,955.54
2017-10-19T05:38:09.340Z,955.57
2017-10-19T05:39:09.362Z,955.6
2017-10-19T05:40:09.385Z,955.61
2017-10-19T05:41:09.406Z,955.58
2017-10-19T05:42:09.426Z,955.59
2017-10-19T05:43:09.443Z,955.61
2017-10-19T05:44:09.469Z,955.63
2017-10-19T05:45:09.501Z,955.57
2017-10-19T05:46:09.505Z,955.62
2017-10-19T05:47:09.529Z,955.62
2017-10-19T05:48:09.547Z,955.63
2017-10-19T05:49:09.566Z,955.64
2017-10-19T05:50:09.587Z,955.65
2017-10-19T05:51:09.609Z,955.67
2017-10-19T05:52:09.634Z,955.62
2017-10-19T05:53:09.651Z,955.65
2017-10-19T05:54:09.674Z,955.68
2017-10-19T05:55:09.694Z,955.69
2017-10-19T05:56:09.712Z,955.71
2017-10-19T05:57:09.737Z,955.72
2017-10-19T05:58:09.753Z,955.7
2017-10-19T05:59:09.773Z,955.72
2017-10-19T06:00:09.795Z,955.78
2017-10-19T06:01:09.814Z,955.78
2017-10-19T06:02:09.834Z,955.79
2017-10-19T06:03:09.860Z,955.79
2017-10-19T06:04:09.875Z,955.78
2017-10-19T06:05:09.901Z,955.82
2017-10-19T06:06:09.923Z,955.81
2017-10-19T06:07:09.941Z,955.82
2017-10-19T06:08:09.963Z,955.85
2017-10-19T06:09:10.028Z,955.83
2017-10-19T06:10:10.004Z,955.82
2017-10-19T06:11:10.024Z,955.88
2017-10-19T06:12:10.045Z,955.84
2017-10-19T06:13:10.062Z,955.83
2017-10-19T06:14:10.081Z,955.9
2017-10-19T06:15:10.106Z,955.87
2017-10-19T06:16:10.167Z,955.88
2017-10-19T06:17:10.147Z,955.92
2017-10-19T06:18:10.163Z,955.91
2017-10-19T06:19:10.183Z,955.93
2017-10-19T06:20:10.202Z,955.99
2017-10-19T06:21:10.223Z,955.98
2017-10-19T06:22:10.247Z,956.04
2017-10-19T06:23:10.264Z,956.01
2017-10-19T06:24:10.334Z,955.98
2017-10-19T06:25:10.317Z,955.98
2017-10-19T06:26:10.340Z,956.01
2017-10-19T06:27:10.346Z,956.01
2017-10-19T06:28:10.369Z,956.01
2017-10-19T06:29:10.389Z,956
2017-10-19T06:30:10.409Z,956.04
2017-10-19T06:31:10.429Z,956.05
2017-10-19T06:32:10.458Z,956.03
2017-10-19T06:33:10.474Z,956.04
2017-10-19T06:34:10.491Z,956.09
2017-10-19T06:35:10.512Z,956.07
2017-10-19T06:36:10.532Z,956.1
2017-10-19T06:37:10.556Z,956.09
2017-10-19T06:38:10.574Z,956.11
2017-10-19T06:39:10.647Z,956.09
2017-10-19T06:40:10.622Z,956.06
2017-10-19T06:41:10.636Z,956.08
2017-10-19T06:42:10.657Z,956.07
2017-10-19T06:43:10.677Z,956.08
2017-10-19T06:44:10.698Z,956.11
2017-10-19T06:45:10.719Z,956.09
2017-10-19T06:46:10.740Z,956.11
2017-10-19T06:47:10.766Z,956.1
2017-10-19T06:48:10.782Z,956.09
2017-10-19T06:49:10.802Z,956.12
2017-10-19T06:50:10.823Z,956.1
2017-10-19T06:51:10.843Z,956.11
2017-10-19T06:52:10.864Z,956.14
2017-10-19T06:53:10.890Z,956.14
2017-10-19T06:54:10.958Z,956.13
2017-10-19T06:55:10.928Z,956.17
2017-10-19T06:56:10.949Z,956.15
2017-10-19T06:57:10.975Z,956.13
2017-10-19T06:58:10.993Z,956.16
2017-10-19T06:59:11.015Z,956.13
2017-10-19T07:00:11.035Z,956.15
2017-10-19T07:01:11.058Z,956.17
2017-10-19T07:02:11.076Z,956.18
2017-10-19T07:03:11.103Z,956.17
2017-10-19T07:04:11.126Z,956.13
2017-10-19T07:05:11.149Z,956.16
2017-10-19T07:06:11.162Z,956.16
2017-10-19T07:07:11.184Z,956.17
2017-10-19T07:08:11.207Z,956.15
2017-10-19T07:09:11.229Z,956.16
2017-10-19T07:10:11.300Z,956.11
2017-10-19T07:11:11.274Z,956.09
2017-10-19T07:12:11.297Z,956.08
2017-10-19T07:13:11.314Z,956.15
2017-10-19T07:14:11.336Z,956.09
2017-10-19T07:15:11.364Z,956.1
2017-10-19T07:16:11.381Z,956.09
2017-10-19T07:17:11.402Z,956.1
2017-10-19T07:18:11.423Z,956.06
2017-10-19T07:19:11.443Z,956.12
2017-10-19T07:20:11.466Z,956.16
2017-10-19T07:21:11.489Z,956.13
2017-10-19T07:22:11.511Z,956.11
2017-10-19T07:23:11.537Z,956.12
2017-10-19T07:24:11.552Z,956.15
2017-10-19T07:25:11.575Z,956.14
2017-10-19T07:26:11.606Z,956.09
2017-10-19T07:27:11.772Z,956.15
2017-10-19T07:28:11.641Z,956.15
2017-10-19T07:29:11.664Z,956.16
2017-10-19T07:30:11.685Z,956.18
2017-10-19T07:31:11.708Z,956.16
2017-10-19T07:32:11.732Z,956.13
2017-10-19T07:33:11.753Z,956.14
2017-10-19T07:34:11.776Z,956.15
2017-10-19T07:35:11.796Z,956.13
2017-10-19T07:36:11.818Z,956.19
2017-10-19T07:37:11.845Z,956.19
2017-10-19T07:38:11.866Z,956.18
2017-10-19T07:39:11.885Z,956.21
2017-10-19T07:40:11.909Z,956.27
2017-10-19T07:41:11.930Z,956.24
2017-10-19T07:42:11.975Z,956.26
2017-10-19T07:43:11.975Z,956.25
2017-10-19T07:44:12.050Z,956.27
2017-10-19T07:45:12.019Z,956.21
2017-10-19T07:46:12.042Z,956.26
2017-10-19T07:47:12.067Z,956.23
2017-10-19T07:48:12.094Z,956.23
2017-10-19T07:49:12.110Z,956.25
2017-10-19T07:50:12.134Z,956.22
2017-10-19T07:51:12.156Z,956.23
2017-10-19T07:52:12.177Z,956.28
2017-10-19T07:53:12.198Z,956.23
2017-10-19T07:54:12.220Z,956.28
2017-10-19T07:55:12.243Z,956.3
2017-10-19T07:56:12.268Z,956.32
2017-10-19T07:57:12.287Z,956.33
2017-10-19T07:58:12.310Z,956.36
2017-10-19T07:59:12.335Z,956.38
2017-10-19T08:00:12.355Z,956.33
2017-10-19T08:01:12.388Z,956.4
2017-10-19T08:02:12.408Z,956.4
2017-10-19T08:03:12.432Z,956.38
2017-10-19T08:04:12.449Z,956.34
2017-10-19T08:05:12.471Z,956.37
2017-10-19T08:06:12.491Z,956.38
2017-10-19T08:07:12.514Z,956.37
2017-10-19T08:08:12.541Z,956.4
2017-10-19T08:09:12.562Z,956.39
2017-10-19T08:10:12.584Z,956.37
2017-10-19T08:11:12.606Z,956.37
2017-10-19T08:12:12.628Z,956.37
2017-10-19T08:13:12.651Z,956.39
2017-10-19T08:14:12.676Z,956.35
2017-10-19T08:15:12.700Z,956.37
2017-10-19T08:16:12.720Z,956.33
2017-10-19T08:17:12.800Z,956.31
2017-10-19T08:18:12.771Z,956.32
2017-10-19T08:19:12.792Z,956.34
2017-10-19T08:20:12.828Z,956.34
2017-10-19T08:21:12.839Z,956.34
2017-10-19T08:22:12.863Z,956.36
2017-10-19T08:23:12.884Z,956.38
2017-10-19T08:24:12.908Z,956.39
2017-10-19T08:25:12.932Z,956.39
2017-10-19T08:26:12.957Z,956.37
2017-10-19T08:27:12.982Z,956.42
2017-10-19T08:28:13.003Z,956.37
2017-10-19T08:29:13.028Z,956.41
2017-10-19T08:30:13.049Z,956.38
2017-10-19T08:31:13.077Z,956.41
2017-10-19T08:32:13.151Z,956.39
2017-10-19T08:33:13.121Z,956.43
2017-10-19T08:34:13.147Z,956.41
2017-10-19T08:35:13.168Z,956.42
2017-10-19T08:36:13.200Z,956.42
2017-10-19T08:37:13.217Z,956.43
2017-10-19T08:38:13.243Z,956.42
2017-10-19T08:39:13.272Z,956.42
2017-10-19T08:40:13.290Z,956.41
2017-10-19T08:41:13.316Z,956.42
2017-10-19T08:42:13.337Z,956.41
2017-10-19T08:43:13.368Z,956.4
2017-10-19T08:44:13.392Z,956.48
2017-10-19T08:45:13.410Z,956.45
2017-10-19T08:46:13.437Z,956.44
2017-10-19T08:47:13.509Z,956.47
2017-10-19T08:48:13.484Z,956.43
2017-10-19T08:49:13.509Z,956.46
2017-10-19T08:50:13.534Z,956.45
2017-10-19T08:51:13.567Z,956.43
2017-10-19T08:52:13.583Z,956.44
2017-10-19T08:53:13.608Z,956.42
2017-10-19T08:54:13.634Z,956.45
2017-10-19T08:55:13.659Z,956.39
2017-10-19T08:56:13.681Z,956.39
2017-10-19T08:57:13.707Z,956.37
2017-10-19T08:58:13.734Z,956.37
2017-10-19T08:59:13.772Z,956.36
2017-10-19T09:00:13.787Z,956.36
2017-10-19T09:01:13.815Z,956.35
2017-10-19T09:02:13.886Z,956.34
2017-10-19T09:03:13.857Z,956.34
2017-10-19T09:04:13.883Z,956.36
2017-10-19T09:05:13.908Z,956.35
2017-10-19T09:06:13.935Z,956.31
2017-10-19T09:07:13.964Z,956.32
2017-10-19T09:08:13.985Z,956.3
2017-10-19T09:09:14.010Z,956.32
2017-10-19T09:10:14.037Z,956.32
2017-10-19T09:11:14.060Z,956.35
2017-10-19T09:12:14.092Z,956.39
2017-10-19T09:13:14.120Z,956.38
2017-10-19T09:14:14.142Z,956.41
2017-10-19T09:15:14.164Z,956.42
2017-10-19T09:16:14.191Z,956.4
2017-10-19T09:17:14.214Z,956.39
2017-10-19T09:18:14.240Z,956.4
2017-10-19T09:19:14.266Z,956.4
2017-10-19T09:20:14.441Z,956.41
2017-10-19T09:21:14.316Z,956.37
2017-10-19T09:22:14.341Z,956.41
2017-10-19T09:23:14.371Z,956.41
2017-10-19T09:24:14.393Z,956.42
2017-10-19T09:25:14.496Z,956.45
2017-10-19T09:26:14.449Z,956.43
2017-10-19T09:27:14.485Z,956.44
2017-10-19T09:28:14.500Z,956.39
2017-10-19T09:29:14.528Z,956.43
2017-10-19T09:30:14.549Z,956.43
2017-10-19T09:31:14.577Z,956.46
2017-10-19T09:32:14.605Z,956.46
2017-10-19T09:33:14.624Z,956.47
2017-10-19T09:34:14.655Z,956.46
2017-10-19T09:35:14.729Z,956.48
2017-10-19T09:36:14.706Z,956.51
2017-10-19T09:37:14.731Z,956.47
2017-10-19T09:38:14.762Z,956.46
2017-10-19T09:39:14.781Z,956.5
2017-10-19T09:40:14.806Z,956.5
2017-10-19T09:41:14.839Z,956.47
2017-10-19T09:42:14.860Z,956.5
2017-10-19T09:43:14.888Z,956.5
2017-10-19T09:44:14.917Z,956.48
2017-10-19T09:45:14.940Z,956.51
2017-10-19T09:46:14.967Z,956.49
2017-10-19T09:47:14.990Z,956.49
2017-10-19T09:48:15.017Z,956.5
2017-10-19T09:49:15.043Z,956.52
2017-10-19T09:50:15.072Z,956.51
2017-10-19T09:51:15.154Z,956.54
2017-10-19T09:52:15.122Z,956.57
2017-10-19T09:53:15.150Z,956.64
2017-10-19T09:54:15.174Z,956.69
2017-10-19T09:55:15.204Z,956.71
2017-10-19T09:56:15.229Z,956.7
2017-10-19T09:57:15.255Z,956.7
2017-10-19T09:58:15.283Z,956.69
2017-10-19T09:59:15.309Z,956.73
2017-10-19T10:00:15.337Z,956.75
2017-10-19T10:01:15.363Z,956.73
2017-10-19T10:02:15.394Z,956.7
2017-10-19T10:03:15.421Z,956.76
2017-10-19T10:04:15.454Z,956.79
2017-10-19T10:05:15.484Z,956.76
2017-10-19T10:06:15.505Z,956.77
2017-10-19T10:07:15.537Z,956.79
2017-10-19T10:08:15.567Z,956.78
2017-10-19T10:09:15.596Z,956.78
2017-10-19T10:10:15.677Z,956.82
2017-10-19T10:11:15.657Z,956.8
2017-10-19T10:12:15.687Z,956.78
2017-10-19T10:13:15.717Z,956.81
2017-10-19T10:14:15.749Z,956.83
2017-10-19T10:15:15.784Z,956.8
2017-10-19T10:16:15.823Z,956.81
2017-10-19T10:17:15.849Z,956.76
2017-10-19T10:18:16.035Z,956.79
2017-10-19T10:19:15.908Z,956.78
2017-10-19T10:20:15.979Z,956.75
2017-10-19T10:21:16.100Z,956.76
2017-10-19T10:22:16.003Z,956.79
2017-10-19T10:23:16.041Z,956.81
2017-10-19T10:24:16.076Z,956.82
2017-10-19T10:25:16.105Z,956.81
2017-10-19T10:26:16.187Z,956.84
2017-10-19T10:27:16.175Z,956.84
2017-10-19T10:28:16.204Z,956.84
2017-10-19T10:29:16.249Z,956.87
2017-10-19T10:30:16.269Z,956.83
2017-10-19T10:31:16.303Z,956.85
2017-10-19T10:32:16.336Z,956.85
2017-10-19T10:33:16.373Z,956.83
2017-10-19T10:34:16.404Z,956.78
2017-10-19T10:35:16.442Z,956.76
2017-10-19T10:36:16.827Z,956.74
2017-10-19T10:37:16.508Z,956.74
2017-10-19T10:38:16.548Z,956.77
2017-10-19T10:39:16.574Z,956.73
2017-10-19T10:40:16.611Z,956.73
2017-10-19T10:41:16.694Z,956.79
2017-10-19T10:42:16.683Z,956.76
2017-10-19T10:43:16.714Z,956.79
2017-10-19T10:44:16.758Z,956.72
2017-10-19T10:45:16.783Z,956.71
2017-10-19T10:46:16.817Z,956.72
2017-10-19T10:47:16.853Z,956.72
2017-10-19T10:48:16.890Z,956.69
2017-10-19T10:49:16.925Z,956.66
2017-10-19T10:50:16.966Z,956.65
2017-10-19T10:51:16.998Z,956.64
2017-10-19T10:52:17.029Z,956.62
2017-10-19T10:53:17.065Z,956.65
2017-10-19T10:54:17.103Z,956.61
2017-10-19T10:55:17.135Z,956.59
2017-10-19T10:56:17.373Z,956.59
2017-10-19T10:57:17.208Z,956.61
2017-10-19T10:58:17.245Z,956.62
2017-10-19T10:59:17.278Z,956.62
2017-10-19T11:00:17.312Z,956.61
2017-10-19T11:01:17.350Z,956.64
2017-10-19T11:02:17.387Z,956.64
2017-10-19T11:03:17.421Z,956.69
2017-10-19T11:04:17.464Z,956.65
2017-10-19T11:05:17.494Z,956.63
2017-10-19T11:06:17.531Z,956.66
2017-10-19T11:07:17.568Z,956.67
2017-10-19T11:08:17.608Z,956.65
2017-10-19T11:09:17.640Z,956.62
2017-10-19T11:10:17.675Z,956.65
2017-10-19T11:11:17.716Z,956.64
2017-10-19T11:12:17.746Z,956.62
2017-10-19T11:13:17.787Z,956.65
2017-10-19T11:14:17.823Z,956.66
2017-10-19T11:15:17.858Z,956.68
2017-10-19T11:16:17.896Z,956.6
2017-10-19T11:17:17.935Z,956.58
2017-10-19T11:18:17.968Z,956.54
2017-10-19T11:19:18.007Z,956.57
2017-10-19T11:20:18.044Z,956.55
2017-10-19T11:21:18.084Z,956.57
2017-10-19T11:22:18.119Z,956.58
2017-10-19T11:23:18.155Z,956.57
2017-10-19T11:24:18.193Z,956.59
2017-10-19T11:25:18.230Z,956.58
2017-10-19T11:26:18.276Z,956.61
2017-10-19T11:27:18.306Z,956.61
2017-10-19T11:28:18.344Z,956.57
2017-10-19T11:29:18.380Z,956.61
2017-10-19T11:30:18.420Z,956.58
2017-10-19T11:31:18.459Z,956.62
2017-10-19T11:32:18.496Z,956.6
2017-10-19T11:33:18.533Z,956.61
2017-10-19T11:34:18.570Z,956.62
2017-10-19T11:35:18.610Z,956.63
2017-10-19T11:36:18.647Z,956.55
2017-10-19T11:37:18.684Z,956.55
2017-10-19T11:38:18.727Z,956.53
2017-10-19T11:39:18.761Z,956.52
2017-10-19T11:40:18.804Z,956.52
2017-10-19T11:41:18.840Z,956.48
2017-10-19T11:42:18.886Z,956.45
2017-10-19T11:43:18.916Z,956.48
2017-10-19T11:44:18.952Z,956.47
2017-10-19T11:45:18.992Z,956.5
2017-10-19T11:46:19.033Z,956.48
2017-10-19T11:47:19.068Z,956.53
2017-10-19T11:48:19.108Z,956.49
2017-10-19T11:49:19.147Z,956.52
2017-10-19T11:50:19.188Z,956.52
2017-10-19T11:51:19.224Z,956.52
2017-10-19T11:52:19.261Z,956.54
2017-10-19T11:53:19.301Z,956.58
2017-10-19T11:54:19.346Z,956.57
2017-10-19T11:55:19.380Z,956.56
2017-10-19T11:56:19.423Z,956.6
2017-10-19T11:57:19.458Z,956.6
2017-10-19T11:58:19.496Z,956.62
2017-10-19T11:59:19.534Z,956.64
2017-10-19T12:00:19.574Z,956.63
2017-10-19T12:01:19.616Z,956.65
2017-10-19T12:02:19.655Z,956.7
2017-10-19T12:03:19.691Z,956.65
2017-10-19T12:04:19.731Z,956.64
2017-10-19T12:05:19.769Z,956.67
2017-10-19T12:06:19.807Z,956.64
2017-10-19T12:07:19.844Z,956.65
2017-10-19T12:08:19.886Z,956.63
2017-10-19T12:09:19.925Z,956.68
2017-10-19T12:10:19.967Z,956.65
2017-10-19T12:11:20.003Z,956.62
2017-10-19T12:12:20.040Z,956.66
2017-10-19T12:13:20.080Z,956.67
2017-10-19T12:14:20.147Z,956.66
2017-10-19T12:15:20.164Z,956.68
2017-10-19T12:16:20.199Z,956.7
2017-10-19T12:17:20.237Z,956.75
2017-10-19T12:18:20.276Z,956.67
2017-10-19T12:19:20.322Z,956.7
2017-10-19T12:20:20.376Z,956.65
2017-10-19T12:21:20.395Z,956.63
2017-10-19T12:22:20.436Z,956.6
2017-10-19T12:23:20.473Z,956.61
2017-10-19T12:24:20.512Z,956.54
2017-10-19T12:25:20.559Z,956.56
2017-10-19T12:26:20.590Z,956.58
2017-10-19T12:27:20.630Z,956.56
2017-10-19T12:28:20.671Z,956.56
2017-10-19T12:29:20.710Z,956.58
2017-10-19T12:30:20.751Z,956.58